Time;durP1;ratioP1;P1;durP2;ratioP2;P2;SDS_P1;SDS_P2;PMS_P1;PMS_P2;Temp;Humidity;BMP_temperature;BMP_pressure;BME280_temperature;BME280_humidity;BME280_pressure;Samples;Min_cycle;Max_cycle;Signal;HPM_P1;HPM_P2
2021/12/30 00:00:44;;;;;;;9.38;4.78;;;4.00;84.90;;;;;;4155486;28;20033;-64
2021/12/30 00:02:45;;;;;;;7.45;4.15;;;4.00;84.90;;;;;;4123603;28;20392;-65
2021/12/30 00:04:45;;;;;;;9.15;4.45;;;4.10;85.00;;;;;;4139183;28;20443;-66
2021/12/30 00:06:47;;;;;;;7.50;4.40;;;4.10;85.00;;;;;;4157289;28;20045;-65
2021/12/30 00:08:48;;;;;;;7.82;4.45;;;4.10;84.90;;;;;;4133472;28;20026;-65
2021/12/30 00:10:49;;;;;;;8.93;5.00;;;4.20;84.90;;;;;;4148912;28;20065;-65
2021/12/30 00:12:51;;;;;;;11.55;5.05;;;4.10;84.70;;;;;;4134184;28;20040;-67
2021/12/30 00:14:52;;;;;;;8.88;4.95;;;4.20;84.80;;;;;;4135732;28;20062;-65
2021/12/30 00:16:52;;;;;;;7.28;4.30;;;4.20;84.70;;;;;;4156507;28;20057;-65
2021/12/30 00:18:53;;;;;;;8.02;4.60;;;4.20;84.70;;;;;;4158280;28;20042;-66
2021/12/30 00:20:54;;;;;;;10.65;4.47;;;4.20;84.70;;;;;;4156801;28;20033;-65
2021/12/30 00:22:55;;;;;;;7.80;4.75;;;4.20;84.70;;;;;;4151682;28;20400;-65
2021/12/30 00:24:55;;;;;;;7.57;4.68;;;4.20;84.70;;;;;;4155492;28;20034;-65
2021/12/30 00:26:56;;;;;;;7.13;4.25;;;4.20;84.70;;;;;;4154528;28;20125;-65
2021/12/30 00:28:56;;;;;;;10.48;4.78;;;4.30;84.70;;;;;;4155451;28;20378;-65
2021/12/30 00:30:57;;;;;;;9.50;5.18;;;4.30;84.80;;;;;;4154918;28;20022;-65
2021/12/30 00:32:58;;;;;;;8.27;4.35;;;4.30;84.80;;;;;;4157806;28;20112;-65
2021/12/30 00:34:58;;;;;;;8.05;4.55;;;4.30;84.80;;;;;;4149268;28;20038;-66
2021/12/30 00:36:59;;;;;;;8.40;4.53;;;4.30;84.70;;;;;;4151943;28;20095;-66
2021/12/30 00:39:00;;;;;;;9.77;5.38;;;4.40;84.80;;;;;;4153367;28;20037;-66
2021/12/30 00:41:01;;;;;;;8.93;5.43;;;4.40;84.80;;;;;;4152778;28;20079;-66
2021/12/30 00:43:01;;;;;;;8.55;5.10;;;4.40;84.70;;;;;;4155634;28;20037;-65
2021/12/30 00:45:02;;;;;;;10.63;5.28;;;4.40;84.70;;;;;;4155217;28;20042;-65
2021/12/30 00:47:03;;;;;;;10.07;5.65;;;4.50;84.70;;;;;;4152692;28;20041;-64
2021/12/30 00:49:04;;;;;;;11.45;5.93;;;4.50;84.60;;;;;;4151571;28;20489;-65
2021/12/30 00:51:05;;;;;;;9.32;5.38;;;4.50;84.70;;;;;;4149210;28;20041;-65
2021/12/30 00:53:07;;;;;;;14.35;6.40;;;4.50;84.70;;;;;;4145661;28;20033;-66
2021/12/30 00:55:08;;;;;;;12.40;5.55;;;4.60;84.70;;;;;;4149630;28;20451;-65
2021/12/30 00:57:09;;;;;;;10.07;5.72;;;4.60;84.70;;;;;;4153729;28;20040;-68
2021/12/30 00:59:09;;;;;;;10.90;6.63;;;4.60;84.60;;;;;;4145124;28;20120;-65
2021/12/30 01:01:10;;;;;;;12.30;6.72;;;4.60;84.60;;;;;;4137532;28;20112;-65
2021/12/30 01:03:11;;;;;;;14.10;6.07;;;4.60;84.50;;;;;;4155908;28;20029;-64
2021/12/30 01:05:12;;;;;;;14.10;6.15;;;4.70;84.50;;;;;;4151731;28;20397;-64
2021/12/30 01:07:13;;;;;;;12.93;6.03;;;4.70;84.50;;;;;;4154929;28;20030;-65
2021/12/30 01:09:13;;;;;;;13.85;6.20;;;4.70;84.50;;;;;;4154458;28;20033;-65
2021/12/30 01:11:14;;;;;;;23.40;6.68;;;4.70;84.40;;;;;;4157643;28;20037;-65
2021/12/30 01:13:20;;;;;;;13.40;6.78;;;4.70;84.40;;;;;;4156888;28;20585;-66
2021/12/30 01:15:30;;;;;;;16.67;7.03;;;4.70;84.40;;;;;;4155670;28;20025;-65
2021/12/30 01:17:44;;;;;;;16.73;7.82;;;4.80;84.40;;;;;;4157267;28;20409;-65
2021/12/30 01:19:45;;;;;;;18.95;8.63;;;4.80;84.40;;;;;;4155505;28;20029;-64
2021/12/30 01:21:46;;;;;;;19.17;8.63;;;4.80;84.40;;;;;;4155199;28;20095;-64
2021/12/30 01:23:46;;;;;;;24.58;9.02;;;4.80;84.40;;;;;;4157653;28;20041;-64
2021/12/30 01:25:47;;;;;;;30.20;9.82;;;4.80;84.50;;;;;;4155358;28;20042;-64
2021/12/30 01:27:48;;;;;;;33.15;9.25;;;4.90;84.60;;;;;;4158148;28;20034;-64
2021/12/30 01:29:48;;;;;;;46.38;9.65;;;4.90;84.70;;;;;;4152627;28;20257;-65
2021/12/30 01:31:49;;;;;;;32.55;10.07;;;4.90;84.80;;;;;;4156502;28;20036;-65
2021/12/30 01:33:50;;;;;;;29.55;8.52;;;4.90;84.80;;;;;;4155825;28;20025;-64
2021/12/30 01:35:51;;;;;;;32.28;9.30;;;4.90;84.90;;;;;;4154650;28;20026;-65
2021/12/30 01:37:54;;;;;;;53.53;11.00;;;4.90;84.90;;;;;;4153748;28;20101;-63
2021/12/30 01:39:54;;;;;;;;;;;5.00;85.00;;;;;;4159140;28;20030;-65
2021/12/30 01:41:55;;;;;;;45.60;10.35;;;5.00;85.10;;;;;;4158112;28;19905;-64
2021/12/30 01:43:56;;;;;;;28.58;10.82;;;5.10;85.00;;;;;;4154284;28;20053;-64
2021/12/30 01:45:57;;;;;;;46.95;10.52;;;5.10;84.80;;;;;;4156057;28;20032;-64
2021/12/30 01:47:58;;;;;;;32.92;9.18;;;5.10;84.90;;;;;;4154005;28;20519;-65
2021/12/30 01:49:58;;;;;;;56.17;10.43;;;5.10;84.90;;;;;;4155647;28;20043;-64
2021/12/30 01:51:59;;;;;;;29.27;10.40;;;5.10;85.70;;;;;;4154207;28;20029;-63
2021/12/30 01:54:00;;;;;;;51.97;11.13;;;5.10;85.00;;;;;;4157326;28;20021;-64
2021/12/30 01:56:00;;;;;;;49.85;10.13;;;5.10;85.00;;;;;;4156457;28;20029;-64
2021/12/30 01:58:02;;;;;;;36.00;9.73;;;5.20;85.00;;;;;;4156686;28;20028;-65
2021/12/30 02:00:05;;;;;;;49.33;10.55;;;5.20;85.00;;;;;;4136198;28;20030;-63
2021/12/30 02:02:05;;;;;;;35.38;11.48;;;5.20;85.00;;;;;;4156161;28;20533;-65
2021/12/30 02:04:06;;;;;;;31.83;10.85;;;5.20;85.00;;;;;;4156571;28;20034;-65
2021/12/30 02:06:07;;;;;;;35.88;10.63;;;5.20;85.10;;;;;;4156542;28;20033;-64
2021/12/30 02:08:08;;;;;;;18.98;10.00;;;5.20;85.10;;;;;;4155870;28;20025;-66
2021/12/30 02:10:10;;;;;;;42.83;10.77;;;5.30;85.10;;;;;;4156851;28;20030;-65
2021/12/30 02:12:11;;;;;;;31.30;9.85;;;5.30;85.10;;;;;;4156945;28;20477;-65
2021/12/30 02:14:11;;;;;;;24.02;9.82;;;5.30;85.20;;;;;;4154262;28;20035;-64
2021/12/30 02:16:12;;;;;;;29.77;10.45;;;5.30;85.10;;;;;;4138387;28;20030;-64
2021/12/30 02:18:13;;;;;;;26.63;10.73;;;5.30;85.10;;;;;;4157392;28;20041;-64
2021/12/30 02:20:44;;;;;;;36.75;11.43;;;5.30;85.10;;;;;;4156557;28;20455;-65
2021/12/30 02:22:45;;;;;;;24.30;10.75;;;5.30;85.10;;;;;;4154626;28;20061;-65
2021/12/30 02:24:49;;;;;;;23.13;10.68;;;5.30;85.10;;;;;;4155894;28;20037;-64
2021/12/30 02:26:51;;;;;;;23.35;9.85;;;5.30;85.10;;;;;;4154831;28;20029;-65
2021/12/30 02:28:52;;;;;;;25.52;9.30;;;5.30;85.10;;;;;;4153149;28;20095;-65
2021/12/30 02:30:54;;;;;;;34.25;10.77;;;5.30;85.10;;;;;;4156121;28;20049;-65
2021/12/30 02:32:54;;;;;;;24.63;10.82;;;5.40;85.10;;;;;;4135156;28;20025;-65
2021/12/30 02:34:55;;;;;;;24.02;9.63;;;5.30;85.10;;;;;;4156039;28;20033;-65
2021/12/30 02:36:55;;;;;;;23.20;10.15;;;5.30;85.00;;;;;;4149978;28;20029;-65
2021/12/30 02:38:56;;;;;;;21.85;9.52;;;5.30;85.00;;;;;;4157218;28;20033;-65
2021/12/30 02:40:58;;;;;;;29.73;10.18;;;5.30;85.70;;;;;;4154963;28;20044;-64
2021/12/30 02:42:59;;;;;;;22.23;9.85;;;5.30;84.90;;;;;;4155737;28;20029;-64
2021/12/30 02:45:00;;;;;;;25.10;10.48;;;5.30;85.00;;;;;;4138066;28;20042;-65
2021/12/30 02:47:00;;;;;;;26.23;9.23;;;5.30;84.90;;;;;;4156530;28;20037;-65
2021/12/30 02:49:02;;;;;;;23.73;9.43;;;5.30;85.00;;;;;;4156414;28;20033;-65
2021/12/30 02:51:05;;;;;;;31.60;9.90;;;5.30;85.10;;;;;;4136321;28;20064;-65
2021/12/30 02:53:06;;;;;;;;;;;5.30;85.10;;;;;;4151851;28;20025;-65
2021/12/30 02:55:07;;;;;;;22.00;8.48;;;5.40;85.50;;;;;;4154371;28;20018;-65
2021/12/30 02:57:08;;;;;;;28.13;8.88;;;5.40;85.20;;;;;;4157230;28;20026;-64
2021/12/30 02:59:09;;;;;;;31.10;9.82;;;5.40;85.30;;;;;;4154701;28;20101;-64
2021/12/30 03:01:14;;;;;;;22.52;8.77;;;5.40;85.30;;;;;;4153760;28;20041;-64
2021/12/30 03:03:21;;;;;;;28.17;8.70;;;5.40;85.30;;;;;;4153443;28;20063;-65
2021/12/30 03:05:24;;;;;;;36.28;9.52;;;5.40;85.30;;;;;;4152728;28;20501;-65
2021/12/30 03:07:24;;;;;;;28.90;8.60;;;5.40;85.40;;;;;;4154008;28;20036;-65
2021/12/30 03:09:25;;;;;;;33.20;8.77;;;5.40;85.40;;;;;;4152150;28;20029;-64
2021/12/30 03:11:27;;;;;;;28.90;7.47;;;5.40;85.40;;;;;;4154625;28;20034;-65
2021/12/30 03:13:32;;;;;;;34.97;8.43;;;5.40;85.40;;;;;;4156088;28;20036;-64
2021/12/30 03:15:32;;;;;;;26.20;6.60;;;5.40;85.40;;;;;;4155042;28;20030;-64
2021/12/30 03:17:33;;;;;;;41.30;8.02;;;5.40;85.50;;;;;;4154800;28;20033;-64
2021/12/30 03:19:34;;;;;;;31.92;6.80;;;5.40;85.60;;;;;;4143951;28;20120;-65
2021/12/30 03:21:35;;;;;;;36.92;7.07;;;5.40;85.70;;;;;;4156294;28;20038;-65
2021/12/30 03:23:35;;;;;;;26.50;6.30;;;5.50;85.90;;;;;;4134050;28;20129;-65
2021/12/30 03:25:36;;;;;;;60.60;7.20;;;5.50;86.10;;;;;;4153034;28;20083;-65
2021/12/30 03:27:37;;;;;;;50.58;5.97;;;5.50;86.10;;;;;;4153055;28;20486;-65
2021/12/30 03:29:37;;;;;;;44.67;6.47;;;5.50;86.20;;;;;;4154696;28;20044;-65
2021/12/30 03:31:38;;;;;;;41.35;5.50;;;5.50;86.20;;;;;;4153709;28;20033;-65
2021/12/30 03:33:39;;;;;;;36.60;5.30;;;5.60;86.30;;;;;;4150883;28;20509;-64
2021/12/30 03:35:40;;;;;;;41.47;5.22;;;5.60;86.40;;;;;;4153605;28;20555;-65
2021/12/30 03:37:41;;;;;;;35.90;5.38;;;5.60;86.50;;;;;;4153947;28;20057;-65
2021/12/30 03:39:41;;;;;;;47.22;5.25;;;5.70;86.80;;;;;;4154504;28;20033;-65
2021/12/30 03:41:42;;;;;;;45.90;5.13;;;5.70;86.80;;;;;;4155952;28;20441;-63
2021/12/30 03:43:43;;;;;;;44.90;5.13;;;5.70;87.70;;;;;;4154417;28;20056;-64
2021/12/30 03:45:44;;;;;;;38.65;5.80;;;5.70;86.90;;;;;;4156948;28;20018;-65
2021/12/30 03:47:47;;;;;;;39.10;5.28;;;5.80;87.00;;;;;;4155681;28;20027;-65
2021/12/30 03:49:48;;;;;;;54.30;6.20;;;5.80;87.10;;;;;;4155705;28;20025;-65
2021/12/30 03:51:51;;;;;;;39.08;4.97;;;5.80;87.20;;;;;;4154039;28;20132;-64
2021/12/30 03:53:54;;;;;;;50.53;5.63;;;5.90;87.20;;;;;;4158788;28;20018;-65
2021/12/30 03:55:54;;;;;;;40.00;5.28;;;5.90;87.30;;;;;;4159344;28;20037;-65
2021/12/30 03:57:55;;;;;;;36.17;5.22;;;5.90;87.30;;;;;;4158223;28;20025;-65
2021/12/30 03:59:56;;;;;;;61.65;6.28;;;5.90;87.30;;;;;;4158635;28;20486;-65
2021/12/30 04:01:56;;;;;;;55.38;6.18;;;6.00;87.40;;;;;;4159283;28;20035;-64
2021/12/30 04:03:57;;;;;;;44.08;6.13;;;6.00;87.50;;;;;;4158077;28;20040;-65
2021/12/30 04:05:58;;;;;;;36.40;5.00;;;6.00;87.60;;;;;;4157378;28;20040;-64
2021/12/30 04:07:58;;;;;;;39.38;4.53;;;6.00;87.50;;;;;;4158441;28;20025;-65
2021/12/30 04:09:59;;;;;;;43.28;5.78;;;6.00;87.50;;;;;;4155703;28;20453;-65
2021/12/30 04:12:00;;;;;;;48.10;5.65;;;6.10;87.50;;;;;;4159207;28;20034;-65
2021/12/30 04:14:02;;;;;;;46.08;5.15;;;6.10;87.60;;;;;;4156025;28;20026;-65
2021/12/30 04:16:03;;;;;;;39.85;5.55;;;6.10;87.50;;;;;;4155459;28;20025;-65
2021/12/30 04:18:04;;;;;;;48.05;5.88;;;6.10;87.50;;;;;;4137541;28;20021;-65
2021/12/30 04:20:07;;;;;;;47.47;5.95;;;6.10;87.50;;;;;;4158943;28;20037;-64
2021/12/30 04:22:08;;;;;;;43.40;6.15;;;6.20;87.50;;;;;;4155323;28;20529;-65
2021/12/30 04:24:09;;;;;;;52.17;6.45;;;6.20;87.60;;;;;;4158503;28;20033;-65
2021/12/30 04:26:09;;;;;;;57.95;6.57;;;6.20;87.60;;;;;;4156667;28;20029;-65
2021/12/30 04:28:10;;;;;;;42.70;4.72;;;6.20;87.50;;;;;;4157877;28;20893;-65
2021/12/30 04:30:12;;;;;;;44.58;5.63;;;6.20;87.50;;;;;;4140745;28;20029;-64
2021/12/30 04:32:12;;;;;;;47.38;5.97;;;6.20;87.50;;;;;;4155488;28;20112;-65
2021/12/30 04:34:13;;;;;;;65.68;6.55;;;6.30;87.50;;;;;;4154403;28;20524;-64
2021/12/30 04:36:14;;;;;;;55.03;6.25;;;6.30;87.30;;;;;;4156380;28;20061;-64
2021/12/30 04:38:14;;;;;;;45.90;4.85;;;6.30;87.20;;;;;;4157634;28;20056;-65
2021/12/30 04:40:15;;;;;;;46.20;5.25;;;6.30;87.10;;;;;;4157261;28;20072;-64
2021/12/30 04:42:15;;;;;;;50.25;5.80;;;6.30;87.00;;;;;;4160027;28;20033;-64
2021/12/30 04:44:16;;;;;;;52.70;6.55;;;6.30;86.90;;;;;;4152311;28;20104;-64
2021/12/30 04:46:17;;;;;;;40.45;5.47;;;6.30;86.80;;;;;;4158847;28;20038;-65
2021/12/30 04:48:17;;;;;;;55.35;5.90;;;6.30;86.80;;;;;;4154978;28;20022;-65
2021/12/30 04:50:18;;;;;;;58.17;7.22;;;6.30;86.80;;;;;;4157631;28;20029;-65
2021/12/30 04:52:19;;;;;;;40.97;5.68;;;6.30;86.70;;;;;;4154965;28;20057;-64
2021/12/30 04:54:20;;;;;;;52.25;6.65;;;6.30;86.70;;;;;;4157596;28;20037;-65
2021/12/30 04:56:20;;;;;;;48.10;6.20;;;6.30;86.70;;;;;;4159117;28;20478;-64
2021/12/30 04:58:21;;;;;;;51.95;5.63;;;6.20;86.50;;;;;;4153227;28;20033;-65
2021/12/30 05:00:22;;;;;;;36.67;5.22;;;6.30;87.20;;;;;;4153408;28;20056;-65
2021/12/30 05:02:27;;;;;;;43.22;5.38;;;6.20;86.30;;;;;;4153448;28;20096;-65
2021/12/30 05:04:27;;;;;;;44.30;5.15;;;6.20;86.10;;;;;;4156742;28;20026;-65
2021/12/30 05:06:28;;;;;;;49.47;5.00;;;6.20;86.00;;;;;;4158294;28;20072;-65
2021/12/30 05:08:29;;;;;;;48.53;6.22;;;6.10;85.90;;;;;;4156372;28;20032;-65
2021/12/30 05:10:29;;;;;;;45.33;5.25;;;6.10;85.70;;;;;;4153314;28;20034;-64
2021/12/30 05:12:30;;;;;;;52.05;5.70;;;6.10;85.60;;;;;;4157697;28;20036;-65
2021/12/30 05:14:31;;;;;;;54.85;5.38;;;6.00;85.40;;;;;;4156085;28;20028;-64
2021/12/30 05:16:31;;;;;;;39.22;4.93;;;6.00;85.30;;;;;;4156083;28;20032;-64
2021/12/30 05:18:33;;;;;;;52.67;5.70;;;6.00;85.30;;;;;;4158804;28;20037;-65
2021/12/30 05:20:34;;;;;;;59.78;7.07;;;5.90;85.20;;;;;;4157594;28;20037;-65
2021/12/30 05:22:34;;;;;;;52.95;5.38;;;5.90;85.20;;;;;;4157920;28;20025;-65
2021/12/30 05:24:35;;;;;;;45.35;5.00;;;5.80;85.10;;;;;;4158522;28;20038;-64
2021/12/30 05:26:36;;;;;;;51.63;5.47;;;5.80;85.10;;;;;;4157685;28;20029;-65
2021/12/30 05:28:36;;;;;;;48.17;5.85;;;5.80;85.10;;;;;;4156071;28;20029;-65
2021/12/30 05:30:37;;;;;;;43.90;5.05;;;5.80;85.10;;;;;;4157107;28;20159;-65
2021/12/30 05:32:38;;;;;;;43.80;5.43;;;5.70;85.10;;;;;;4159282;28;20405;-65
2021/12/30 05:34:39;;;;;;;48.35;6.47;;;5.70;85.90;;;;;;4154251;28;20025;-66
2021/12/30 05:36:39;;;;;;;54.17;6.45;;;5.70;85.30;;;;;;4152301;28;20037;-64
2021/12/30 05:38:40;;;;;;;44.60;4.93;;;5.70;85.40;;;;;;4151126;28;20497;-66
2021/12/30 05:40:40;;;;;;;50.28;5.35;;;5.60;85.40;;;;;;4156920;28;20095;-65
2021/12/30 05:42:41;;;;;;;45.75;5.90;;;5.60;85.40;;;;;;4160135;28;20103;-64
2021/12/30 05:44:42;;;;;;;41.25;5.38;;;5.60;85.50;;;;;;4157664;28;20037;-64
2021/12/30 05:46:42;;;;;;;51.83;5.53;;;5.60;85.60;;;;;;4160229;28;20065;-65
2021/12/30 05:48:43;;;;;;;41.03;5.65;;;5.60;85.60;;;;;;4157992;28;20030;-65
2021/12/30 05:50:44;;;;;;;49.90;5.28;;;5.50;85.60;;;;;;4156973;28;20029;-64
2021/12/30 05:52:45;;;;;;;49.67;6.03;;;5.50;85.60;;;;;;4158771;28;20029;-64
2021/12/30 05:54:45;;;;;;;43.72;5.13;;;5.50;85.60;;;;;;4153988;28;20029;-64
2021/12/30 05:56:46;;;;;;;63.30;6.45;;;5.50;85.50;;;;;;4159074;28;20044;-64
2021/12/30 05:58:46;;;;;;;41.33;4.60;;;5.50;85.50;;;;;;4156018;28;20041;-67
2021/12/30 06:00:48;;;;;;;48.92;6.05;;;5.50;85.60;;;;;;4156599;28;20033;-65
2021/12/30 06:02:48;;;;;;;52.70;5.70;;;5.50;85.50;;;;;;4158950;28;20038;-64
2021/12/30 06:04:49;;;;;;;43.08;4.88;;;5.50;85.50;;;;;;4155670;28;20126;-65
2021/12/30 06:06:50;;;;;;;47.03;4.95;;;5.50;85.30;;;;;;4149682;28;20038;-65
2021/12/30 06:08:55;;;;;;;35.28;4.63;;;5.50;85.20;;;;;;4152434;28;20064;-65
2021/12/30 06:10:55;;;;;;;54.80;5.38;;;5.50;85.10;;;;;;4151319;28;20037;-64
2021/12/30 06:12:56;;;;;;;45.90;5.15;;;5.50;85.00;;;;;;4155481;28;20532;-65
2021/12/30 06:14:57;;;;;;;46.30;5.55;;;5.40;84.80;;;;;;4157350;28;20029;-64
2021/12/30 06:16:58;;;;;;;36.30;4.97;;;5.40;84.70;;;;;;4157357;28;20045;-64
2021/12/30 06:18:59;;;;;;;46.15;5.95;;;5.40;84.60;;;;;;4157363;28;20021;-65
2021/12/30 06:21:00;;;;;;;43.72;7.10;;;5.40;84.50;;;;;;4155076;28;20505;-64
2021/12/30 06:23:00;;;;;;;42.58;6.22;;;5.30;84.40;;;;;;4154719;28;20029;-65
2021/12/30 06:25:02;;;;;;;39.92;4.63;;;5.30;84.40;;;;;;4157539;28;20030;-64
2021/12/30 06:27:03;;;;;;;54.45;5.30;;;5.30;84.30;;;;;;4155612;28;20088;-64
2021/12/30 06:29:04;;;;;;;37.35;5.93;;;5.30;84.30;;;;;;4155008;28;20505;-64
2021/12/30 06:31:04;;;;;;;47.25;6.63;;;5.30;84.40;;;;;;4155180;28;20525;-64
2021/12/30 06:33:05;;;;;;;35.00;4.72;;;5.20;84.40;;;;;;4157024;28;20029;-65
2021/12/30 06:35:09;;;;;;;43.22;4.55;;;5.20;84.50;;;;;;4155362;28;20411;-65
2021/12/30 06:37:11;;;;;;;53.40;5.88;;;5.20;84.50;;;;;;4149597;28;20446;-64
2021/12/30 06:39:11;;;;;;;58.22;6.47;;;5.20;84.50;;;;;;4156611;28;20397;-64
2021/12/30 06:41:12;;;;;;;49.28;5.43;;;5.20;84.50;;;;;;4156628;28;20022;-64
2021/12/30 06:43:13;;;;;;;52.25;6.32;;;5.10;84.60;;;;;;4154613;28;20036;-65
2021/12/30 06:45:13;;;;;;;54.97;6.90;;;5.10;84.70;;;;;;4156090;28;20025;-64
2021/12/30 06:47:14;;;;;;;59.90;7.05;;;5.10;85.00;;;;;;4157325;28;20373;-65
2021/12/30 06:49:15;;;;;;;51.53;5.80;;;5.10;85.30;;;;;;4156613;28;20108;-64
2021/12/30 06:51:19;;;;;;;53.85;6.90;;;5.10;85.60;;;;;;4152492;28;20056;-64
2021/12/30 06:53:21;;;;;;;51.17;6.65;;;5.20;85.90;;;;;;4158874;28;20029;-64
2021/12/30 06:55:22;;;;;;;54.53;6.38;;;5.20;86.20;;;;;;4150874;28;20038;-66
2021/12/30 06:57:22;;;;;;;51.10;7.13;;;5.20;86.40;;;;;;4151117;28;20064;-65
2021/12/30 06:59:23;;;;;;;55.55;7.10;;;5.30;86.60;;;;;;4155849;28;20707;-65
2021/12/30 07:01:23;;;;;;;50.00;6.90;;;5.30;86.80;;;;;;4134838;28;20031;-65
2021/12/30 07:03:24;;;;;;;47.58;5.93;;;5.30;86.90;;;;;;4156815;28;20209;-65
2021/12/30 07:05:25;;;;;;;48.42;7.00;;;5.40;87.00;;;;;;4136579;28;20323;-65
2021/12/30 07:07:25;;;;;;;40.60;6.85;;;5.40;87.00;;;;;;4155845;28;20037;-65
2021/12/30 07:09:26;;;;;;;66.75;8.68;;;5.40;87.00;;;;;;4155436;28;20025;-65
2021/12/30 07:11:27;;;;;;;43.05;7.38;;;5.50;87.10;;;;;;4156315;28;20026;-65
2021/12/30 07:13:28;;;;;;;47.45;6.53;;;5.50;87.10;;;;;;4154632;28;20116;-65
2021/12/30 07:15:28;;;;;;;43.22;6.18;;;5.50;87.10;;;;;;4153209;28;20481;-65
2021/12/30 07:17:31;;;;;;;64.40;8.15;;;5.50;87.10;;;;;;4149800;28;20112;-66
2021/12/30 07:19:32;;;;;;;49.55;6.38;;;5.60;87.20;;;;;;4152941;28;20045;-65
2021/12/30 07:21:32;;;;;;;52.13;7.22;;;5.60;87.20;;;;;;4132394;28;20029;-64
2021/12/30 07:23:33;;;;;;;43.28;6.60;;;5.60;87.10;;;;;;4156434;28;20033;-65
2021/12/30 07:25:34;;;;;;;52.20;9.25;;;5.70;87.10;;;;;;4154070;28;20756;-65
2021/12/30 07:27:35;;;;;;;54.85;7.25;;;5.70;87.10;;;;;;4157848;28;20058;-64
2021/12/30 07:29:35;;;;;;;59.72;7.68;;;5.80;87.10;;;;;;4155402;28;20429;-66
2021/12/30 07:31:36;;;;;;;54.85;7.65;;;5.80;87.10;;;;;;4154590;28;20037;-66
2021/12/30 07:33:37;;;;;;;59.35;7.85;;;5.80;87.10;;;;;;4155377;28;20025;-65
2021/12/30 07:35:37;;;;;;;51.40;7.78;;;5.80;87.10;;;;;;4154910;28;20057;-65
2021/12/30 07:37:38;;;;;;;65.88;8.20;;;5.80;87.00;;;;;;4159073;28;20029;-66
2021/12/30 07:39:39;;;;;;;62.28;8.32;;;5.90;87.10;;;;;;4153055;28;20397;-66
2021/12/30 07:41:39;;;;;;;52.05;6.90;;;5.90;87.00;;;;;;4159490;28;20545;-65
2021/12/30 07:43:40;;;;;;;65.07;9.30;;;5.90;86.90;;;;;;4155734;28;20034;-66
2021/12/30 07:45:41;;;;;;;55.45;8.90;;;5.90;86.90;;;;;;4160794;28;20025;-65
2021/12/30 07:47:41;;;;;;;59.03;9.05;;;5.90;86.80;;;;;;4154483;28;20029;-65
2021/12/30 07:49:42;;;;;;;60.75;8.98;;;5.90;86.80;;;;;;4157495;28;20025;-66
2021/12/30 07:51:43;;;;;;;58.03;8.50;;;5.90;86.70;;;;;;4156822;28;20029;-66
2021/12/30 07:53:43;;;;;;;47.80;7.35;;;6.00;86.80;;;;;;4159200;28;20393;-65
2021/12/30 07:55:44;;;;;;;62.72;9.23;;;6.00;86.70;;;;;;4159598;28;20031;-65
2021/12/30 07:57:45;;;;;;;66.43;8.18;;;6.00;86.60;;;;;;4156021;28;20037;-65
2021/12/30 07:59:45;;;;;;;67.13;9.73;;;6.00;86.60;;;;;;4156860;28;20055;-66
2021/12/30 08:01:46;;;;;;;55.67;8.45;;;6.00;86.50;;;;;;4156964;28;20268;-66
2021/12/30 08:03:47;;;;;;;47.83;7.22;;;6.00;86.50;;;;;;4158152;28;20041;-64
2021/12/30 08:05:48;;;;;;;67.82;8.93;;;6.00;86.50;;;;;;4154483;28;20047;-65
2021/12/30 08:07:49;;;;;;;62.83;7.35;;;6.00;87.20;;;;;;4160305;28;20030;-65
2021/12/30 08:09:50;;;;;;;49.95;8.90;;;6.00;86.50;;;;;;4158630;28;20061;-66
2021/12/30 08:11:50;;;;;;;45.35;7.60;;;6.00;86.50;;;;;;4159516;28;20037;-65
2021/12/30 08:13:51;;;;;;;57.80;8.75;;;6.00;86.50;;;;;;4153446;28;22270;-65
2021/12/30 08:15:52;;;;;;;49.90;7.80;;;6.00;86.50;;;;;;4145744;28;20034;-64
2021/12/30 08:17:52;;;;;;;56.25;8.45;;;6.10;86.60;;;;;;4147593;28;20036;-65
2021/12/30 08:19:53;;;;;;;48.80;8.02;;;6.00;86.50;;;;;;4147166;28;20164;-66
2021/12/30 08:21:53;;;;;;;50.08;7.80;;;6.00;86.50;;;;;;4141701;28;20038;-66
2021/12/30 08:23:54;;;;;;;52.47;7.68;;;6.00;86.60;;;;;;4143284;28;20041;-65
2021/12/30 08:25:55;;;;;;;46.88;7.15;;;6.00;86.60;;;;;;4143178;28;20392;-66
2021/12/30 08:27:56;;;;;;;54.17;7.10;;;6.10;86.70;;;;;;4143778;28;20041;-66
2021/12/30 08:29:56;;;;;;;44.08;7.18;;;6.10;86.70;;;;;;4143150;28;22192;-65
2021/12/30 08:31:57;;;;;;;60.20;7.47;;;6.10;86.70;;;;;;4144493;28;20036;-65
2021/12/30 08:33:58;;;;;;;58.97;8.20;;;6.10;86.80;;;;;;4142314;28;20608;-64
2021/12/30 08:35:58;;;;;;;56.28;7.85;;;6.10;86.80;;;;;;4141439;28;20413;-66
2021/12/30 08:38:00;;;;;;;65.50;8.02;;;6.10;86.80;;;;;;4126475;28;20100;-66
2021/12/30 08:40:02;;;;;;;59.38;7.80;;;6.10;86.80;;;;;;4143229;28;20038;-65
2021/12/30 08:42:04;;;;;;;61.83;8.50;;;6.10;86.80;;;;;;4145916;28;20475;-66
2021/12/30 08:44:05;;;;;;;58.28;8.23;;;6.20;86.90;;;;;;4120374;28;20054;-66
2021/12/30 08:46:05;;;;;;;53.42;8.02;;;6.20;86.80;;;;;;4142391;28;20064;-66
2021/12/30 08:48:06;;;;;;;65.35;7.63;;;6.20;86.80;;;;;;4140421;28;20050;-66
2021/12/30 08:50:08;;;;;;;57.40;7.97;;;6.20;86.80;;;;;;4142118;28;20041;-67
2021/12/30 08:52:09;;;;;;;51.58;7.15;;;6.20;86.80;;;;;;4142659;28;20036;-67
2021/12/30 08:54:09;;;;;;;62.38;8.73;;;6.20;86.80;;;;;;4141093;28;20116;-66
2021/12/30 08:56:14;;;;;;;46.28;7.32;;;6.20;86.80;;;;;;4142399;28;20040;-66
2021/12/30 08:58:14;;;;;;;67.30;7.95;;;6.20;86.90;;;;;;4140386;28;20460;-66
2021/12/30 09:00:23;;;;;;;41.92;6.78;;;6.30;87.00;;;;;;4141505;28;20025;-67
2021/12/30 09:02:23;;;;;;;46.90;7.05;;;6.30;87.00;;;;;;4140621;28;20029;-66
2021/12/30 09:04:26;;;;;;;42.20;6.72;;;6.30;87.10;;;;;;4141262;28;20036;-66
2021/12/30 09:06:26;;;;;;;42.63;6.87;;;6.30;87.10;;;;;;4143675;28;20041;-66
2021/12/30 09:08:27;;;;;;;44.72;7.32;;;6.40;87.30;;;;;;4141272;28;20034;-66
2021/12/30 09:10:29;;;;;;;55.10;7.25;;;6.40;87.30;;;;;;4140131;28;20522;-67
2021/12/30 09:12:30;;;;;;;48.60;7.40;;;6.40;87.40;;;;;;4120726;28;20053;-66
2021/12/30 09:14:31;;;;;;;59.95;8.20;;;6.40;87.40;;;;;;4142404;28;20849;-66
2021/12/30 09:16:32;;;;;;;60.58;8.63;;;6.40;87.50;;;;;;4141993;28;20037;-67
2021/12/30 09:18:32;;;;;;;46.42;7.13;;;6.40;87.50;;;;;;4140999;28;20022;-67
2021/12/30 09:20:35;;;;;;;45.40;6.80;;;6.50;87.60;;;;;;4140436;28;20600;-66
2021/12/30 09:22:36;;;;;;;68.88;7.68;;;6.50;87.60;;;;;;4140733;28;20091;-65
2021/12/30 09:24:36;;;;;;;57.50;8.68;;;6.50;87.60;;;;;;4140593;28;20045;-66
2021/12/30 09:26:38;;;;;;;48.78;8.23;;;6.50;87.50;;;;;;4180844;23;20415;-83
2021/12/30 09:28:38;;;;;;;38.67;7.45;;;6.60;87.60;;;;;;4163753;28;20205;-82
2021/12/30 09:30:40;;;;;;;47.63;6.95;;;6.60;87.60;;;;;;4126351;28;20421;-83
2021/12/30 09:32:41;;;;;;;60.45;6.88;;;6.60;87.60;;;;;;4158948;28;20491;-82
2021/12/30 09:34:42;;;;;;;57.83;8.43;;;6.60;87.60;;;;;;4161113;28;20037;-83
2021/12/30 09:36:43;;;;;;;44.50;6.72;;;6.60;87.70;;;;;;4148519;28;20522;-83
2021/12/30 09:38:43;;;;;;;37.67;6.00;;;6.70;87.80;;;;;;4158527;28;20037;-83
2021/12/30 09:40:44;;;;;;;51.03;7.35;;;6.80;87.90;;;;;;4143647;28;20500;-83
2021/12/30 09:42:51;;;;;;;32.42;5.93;;;6.70;87.90;;;;;;4126460;28;20030;-83
2021/12/30 09:44:51;;;;;;;36.65;5.85;;;6.70;88.00;;;;;;4162334;28;20040;-83
2021/12/30 09:46:52;;;;;;;30.08;6.03;;;6.80;88.10;;;;;;4156712;28;20038;-83
2021/12/30 09:48:52;;;;;;;43.15;6.28;;;6.80;88.20;;;;;;4126316;28;20022;-82
2021/12/30 09:50:54;;;;;;;33.15;5.53;;;6.90;88.20;;;;;;4142892;28;20026;-83
2021/12/30 09:52:56;;;;;;;37.97;6.32;;;6.90;88.30;;;;;;4156441;28;20065;-82
2021/12/30 09:54:56;;;;;;;26.83;5.15;;;7.00;88.40;;;;;;4138794;28;20599;-83
2021/12/30 09:56:57;;;;;;;26.40;5.50;;;7.00;88.40;;;;;;4155308;28;20021;-82
2021/12/30 09:58:58;;;;;;;32.53;5.90;;;7.00;88.40;;;;;;4153217;28;20025;-82
2021/12/30 10:01:00;;;;;;;31.98;5.53;;;7.10;88.50;;;;;;4154218;28;20029;-82
2021/12/30 10:03:01;;;;;;;26.60;5.63;;;7.10;88.40;;;;;;4164129;28;20368;-83
2021/12/30 10:05:04;;;;;;;26.42;5.18;;;7.10;88.40;;;;;;4164008;28;20030;-83
2021/12/30 10:07:18;;;;;;;23.98;5.45;;;7.20;88.40;;;;;;4141987;28;20472;-83
2021/12/30 10:09:18;;;;;;;29.50;5.90;;;7.20;88.40;;;;;;4156514;28;20127;-82
2021/12/30 10:11:19;;;;;;;24.63;5.65;;;7.30;88.50;;;;;;4159229;28;20161;-82
2021/12/30 10:13:29;;;;;;;30.77;5.35;;;7.30;88.50;;;;;;4141613;28;20053;-82
2021/12/30 10:15:39;;;;;;;29.25;5.30;;;7.30;88.50;;;;;;4141832;28;20030;-82
2021/12/30 10:17:41;;;;;;;35.35;5.68;;;7.40;88.70;;;;;;4139797;28;20030;-82
2021/12/30 10:19:42;;;;;;;30.75;6.38;;;7.40;88.50;;;;;;4140911;28;20060;-82
2021/12/30 10:21:42;;;;;;;21.35;5.50;;;7.40;88.40;;;;;;4162424;28;20037;-83
2021/12/30 10:23:51;;;;;;;24.58;5.30;;;7.40;88.40;;;;;;4161394;28;20038;-82
2021/12/30 10:25:53;;;;;;;23.27;5.03;;;7.50;88.30;;;;;;4180824;28;20029;-83
2021/12/30 10:27:55;;;;;;;23.45;5.40;;;7.60;88.40;;;;;;4147630;28;20032;-82
2021/12/30 10:29:56;;;;;;;19.98;5.97;;;7.50;88.30;;;;;;4115757;28;20038;-81
2021/12/30 10:31:57;;;;;;;30.73;6.20;;;7.60;88.40;;;;;;4145941;28;20108;-84